Home

Weather

KSLC Current Conditions

KSLC 071854Z 33005KT 1/8SM R16L/1800VP6000FT FZFG OVC002 M01/M02 A3014 RMK AO2 SFC VIS 1/2 SLP218 I1000 T10111017

KSLC Aviation Forecast

TAF AMD KSLC 071924Z 0719/0824 35003KT 6SM BR BKN002 FM072100 15005KT P6SM SCT070 BKN150 FM080200 15006KT 1/4SM FG VV001 FM080700 15006KT 2SM BR VCSH BKN007 BKN040 FM081300 17006KT 4SM -RA BR SCT020 BKN040 FM082000 34006KT 6SM BR BKN030 BKN050


0° F

Currently
Currently
Currently
Currently
Currently
Currently